Latest Weather Observations for Mullion

IDN60801

Issued at 2:52 pm EST Thursday 28 May 2020 (issued every 10 minutes, with the page automatically refreshed every 10 minutes)

About weather observations | Map of weather stations | Latest weather observations for NSW | Other Formats
Station Details ID: 250070 Name: MULLION (PCS) Lat: -35.11 Lon: 148.85 Height: 750.0 m

Portable automatic weather stations (PAWS) are operated by other organisations, such as Fire and Emergency Services, and are included here by agreement. Portable stations may be deployed to a location for a short period and their location may be subject to change without notice. Wind observations from these stations are provided from heights of either three (3) or ten (10) metres above ground level (AGL).

Data from the previous 72 hours. | See also: Recent months for locations in New South Wales
Date/Time
EST
Temp
°C
App
Temp
°C
Dew
Point
°C
Rel
Hum
%
Delta-T
°C
Wind Press
QNH
hPa
Press
MSL
hPa
Rain since
9am
mm
Dir  Spd
km/h
Gust
km/h
Spd
kts
Gust
kts
28/02:40pm 13.7 8.6 5.8 59 3.9 WNW 22 26 12 14 1022.5 - 0.0
28/02:30pm 13.4 7.9 6.1 61 3.6 WNW 24 26 13 14 1022.4 - 0.0
28/02:20pm 13.0 8.3 6.2 63 3.4 WNW 20 24 11 13 1022.4 - 0.0
28/02:10pm 12.8 9.0 7.5 70 2.7 WNW 17 20 9 11 1022.4 - 0.0
28/02:00pm 12.6 9.7 8.2 74 2.3 NW 13 19 7 10 1022.5 - 0.0
28/01:50pm 12.9 9.9 9.2 78 1.9 NW 15 15 8 8 1022.6 - 0.0
28/01:40pm 13.0 10.1 9.8 81 1.7 NW 15 17 8 9 1022.5 - 0.0
28/01:30pm 12.4 9.0 9.3 81 1.6 NW 17 19 9 10 1022.5 - 0.0
28/01:20pm 12.0 9.0 9.2 83 1.5 NNW 15 19 8 10 1022.5 - 0.0
28/01:10pm 11.6 8.3 9.5 87 1.1 NNW 17 17 9 9 1022.6 - 0.0
28/01:00pm 11.8 8.9 9.6 86 1.2 NNW 15 17 8 9 1022.6 - 0.0
28/12:50pm 12.5 9.7 10.1 85 1.3 NW 15 17 8 9 1022.7 - 0.0
28/12:40pm 12.7 10.4 9.0 78 1.9 NW 11 13 6 7 1022.8 - 0.0
28/12:30pm 12.7 11.0 9.9 83 1.5 NW 9 11 5 6 1023.0 - 0.0
28/12:20pm 12.6 11.5 10.0 84 1.4 WNW 6 7 3 4 1023.1 - 0.0
28/12:10pm 12.4 11.0 9.7 83 1.4 WNW 7 9 4 5 1023.2 - 0.0
28/12:00pm 12.1 11.0 9.8 86 1.2 NW 6 7 3 4 1023.3 - 0.0
28/11:50am 11.5 10.1 9.5 87 1.1 NW 7 9 4 5 1023.4 - 0.0
28/11:40am 11.4 10.2 9.5 88 1.0 NW 6 7 3 4 1023.5 - 0.0
28/11:30am 11.0 9.5 9.3 89 0.9 NNW 7 9 4 5 1023.7 - 0.0
28/11:20am 10.9 9.7 9.4 90 0.8 NW 6 7 3 4 1023.8 - 0.0
28/11:10am 11.0 10.7 10.0 93 0.5 NNW 2 4 1 2 1023.9 - 0.0
28/11:00am 10.5 10.6 10.1 97 0.2 CALM 0 0 0 0 1023.9 - 0.0
28/10:50am 9.3 9.1 9.1 99 0.1 CALM 0 0 0 0 1024.0 - 0.0
28/10:40am 8.0 6.7 7.7 98 0.1 ESE 4 6 2 3 1024.1 - 0.0
28/10:30am 7.5 6.5 7.2 98 0.1 SSE 2 6 1 3 1024.1 - 0.0
28/10:20am 7.0 5.5 6.7 98 0.1 SE 4 7 2 4 1024.1 - 0.0
28/10:10am 6.7 4.5 6.4 98 0.1 ESE 7 9 4 5 1024.2 - 0.0
28/10:00am 6.5 3.9 6.2 98 0.1 ESE 9 11 5 6 1024.2 - 0.0
28/09:50am 6.4 4.2 6.0 97 0.2 SE 7 9 4 5 1024.1 - 0.0
28/09:40am 6.6 4.4 6.0 96 0.3 ESE 7 9 4 5 1024.1 - 0.0
28/09:30am 7.7 6.9 6.6 93 0.5 CALM 0 6 0 3 1024.0 - 0.0
28/09:20am 9.4 8.1 7.8 90 0.8 WNW 4 6 2 3 1023.9 - 0.0
28/09:10am 10.7 9.2 8.4 86 1.2 NNW 6 9 3 5 1023.9 - 0.0
28/09:00am 11.2 10.3 7.8 79 1.7 N 2 6 1 3 1023.8 - 0.0
28/08:50am 10.6 8.8 7.9 83 1.4 NW 7 13 4 7 1023.7 - 0.0
28/08:40am 10.3 6.4 6.9 79 1.7 WSW 17 20 9 11 1023.5 - 0.0
28/08:30am 9.8 4.9 6.9 82 1.4 W 22 24 12 13 1023.8 - 0.0
28/08:20am 9.2 3.5 6.8 85 1.2 W 26 30 14 16 1023.6 - 0.0
28/08:10am 7.9 3.4 6.9 93 0.5 W 20 24 11 13 1023.5 - 0.0
28/08:00am 7.6 3.3 6.8 95 0.4 W 19 19 10 10 1023.5 - 0.0
28/07:50am 7.8 3.5 6.8 93 0.5 W 19 20 10 11 1023.5 - 0.0
28/07:40am 7.8 3.5 6.9 94 0.4 W 19 20 10 11 1023.4 - 0.0
28/07:30am 7.9 4.7 7.0 94 0.4 W 13 17 7 9 1023.3 - 0.0
28/07:20am 8.6 5.5 7.2 91 0.7 W 13 15 7 8 1023.3 - 0.0
28/07:10am 8.2 5.8 7.2 93 0.5 W 9 11 5 6 1023.1 - 0.0
28/07:00am 8.7 6.0 7.4 91 0.6 W 11 11 6 6 1023.1 - 0.0
28/06:50am 8.6 6.3 7.4 92 0.6 WNW 9 11 5 6 1022.9 - 0.0
28/06:40am 8.4 6.7 7.4 93 0.5 WNW 6 11 3 6 1022.8 - 0.0
28/06:30am 8.5 6.7 7.3 92 0.6 W 6 9 3 5 1022.7 - 0.0
28/06:20am 9.3 7.4 7.4 88 0.9 W 7 13 4 7 1022.5 - 0.0
28/06:10am 9.0 6.4 7.7 91 0.6 W 11 13 6 7 1022.4 - 0.0
28/06:00am 9.2 5.8 7.6 90 0.8 W 15 15 8 8 1022.4 - 0.0
28/05:50am 9.2 6.2 7.7 90 0.7 WNW 13 15 7 8 1022.2 - 0.0
28/05:40am 9.2 5.8 7.7 90 0.7 WNW 15 15 8 8 1022.2 - 0.0
28/05:30am 9.0 5.6 7.7 91 0.6 WNW 15 15 8 8 1022.1 - 0.0
28/05:20am 8.6 5.1 7.4 92 0.6 W 15 17 8 9 1022.0 - 0.0
28/05:10am 9.2 5.8 7.6 90 0.8 W 15 17 8 9 1022.0 - 0.0
28/05:00am 9.1 6.8 7.4 89 0.8 WSW 9 11 5 6 1022.0 - 0.0
28/04:50am 9.1 6.4 7.5 90 0.8 W 11 13 6 7 1021.9 - 0.0
28/04:40am 9.0 5.5 7.3 89 0.8 W 15 17 8 9 1022.0 - 0.0
28/04:30am 8.7 4.8 7.1 90 0.8 W 17 19 9 10 1022.0 - 0.0
28/04:20am 8.8 4.9 6.9 88 0.9 W 17 20 9 11 1022.0 - 0.0
28/04:10am 8.4 4.0 6.7 89 0.8 W 19 20 10 11 1022.0 - 0.0
28/04:00am 7.5 3.1 6.7 95 0.4 W 19 20 10 11 1021.9 - 0.0
28/03:50am 7.0 3.3 6.5 97 0.2 W 15 19 8 10 1021.9 - 0.0
28/03:40am 6.8 3.1 6.3 97 0.2 WNW 15 15 8 8 1022.0 - 0.0
28/03:30am 7.1 3.8 6.3 95 0.4 WNW 13 15 7 8 1022.0 - 0.0
28/03:20am 7.2 3.9 6.3 94 0.4 WNW 13 15 7 8 1021.9 - 0.0
28/03:10am 7.9 5.0 6.4 90 0.7 WNW 11 15 6 8 1022.0 - 0.0
28/03:00am 8.4 6.2 6.4 87 1.0 W 7 9 4 5 1022.0 - 0.0
28/02:50am 8.5 6.9 6.5 87 1.0 W 4 7 2 4 1022.1 - 0.0
28/02:40am 8.7 7.1 6.5 86 1.1 W 4 7 2 4 1022.0 - 0.0
28/02:30am 8.8 6.9 6.6 86 1.1 W 6 11 3 6 1022.1 - 0.0
28/02:20am 9.2 7.1 6.6 84 1.3 W 7 9 4 5 1022.1 - 0.0
28/02:10am 9.2 7.3 6.6 84 1.3 W 6 9 3 5 1022.1 - 0.0
28/02:00am 9.5 7.0 6.7 83 1.4 W 9 11 5 6 1022.2 - 0.0
28/01:50am 9.4 7.3 6.6 83 1.4 W 7 9 4 5 1022.1 - 0.0
28/01:40am 9.6 8.1 6.6 81 1.5 W 4 9 2 5 1022.2 - 0.0
28/01:30am 9.6 7.1 6.6 81 1.5 WNW 9 11 5 6 1022.2 - 0.0
28/01:20am 9.4 6.5 6.5 82 1.4 W 11 13 6 7 1022.3 - 0.0
28/01:10am 9.2 7.1 6.5 83 1.3 W 7 13 4 7 1022.2 - 0.0
28/01:00am 9.1 6.6 6.5 84 1.3 W 9 13 5 7 1022.2 - 0.0
28/12:50am 9.3 6.8 6.5 83 1.4 WNW 9 11 5 6 1022.2 - 0.0
28/12:40am 9.1 6.7 7.0 87 1.0 W 9 11 5 6 1022.2 - 0.0
28/12:30am 8.7 6.7 7.1 90 0.8 W 7 9 4 5 1022.2 - 0.0
28/12:20am 8.6 6.8 7.1 90 0.7 WNW 6 9 3 5 1022.2 - 0.0
28/12:10am 8.6 7.6 7.3 91 0.6 WNW 2 7 1 4 1022.2 - 0.0
28/12:00am 8.3 7.7 7.6 95 0.3 CALM 0 0 0 0 1022.1 - 0.0
 
Date/Time
EST
Temp
°C
App
Temp
°C
Dew
Point
°C
Rel
Hum
%
Delta-T
°C
Wind Press
QNH
hPa
Press
MSL
hPa
Rain since
9am
mm
Dir  Spd
km/h
Gust
km/h
Spd
kts
Gust
kts
27/11:50pm 8.1 7.5 7.5 96 0.3 CALM 0 0 0 0 1022.2 - 0.0
27/11:40pm 8.1 7.5 7.4 95 0.3 CALM 0 0 0 0 1022.3 - 0.0
27/11:30pm 8.0 7.4 7.4 96 0.3 CALM 0 0 0 0 1022.2 - 0.0
27/11:20pm 7.9 7.3 7.3 96 0.3 CALM 0 0 0 0 1022.3 - 0.0
27/11:10pm 8.0 6.2 7.2 95 0.4 E 6 17 3 9 1022.2 - 0.0
27/11:00pm 8.4 6.6 7.3 93 0.5 ESE 6 11 3 6 1022.1 - 0.0
27/10:50pm 8.5 7.9 7.3 92 0.6 CALM 0 4 0 2 1021.9 - 0.0
27/10:40pm 8.5 7.1 7.3 92 0.6 ENE 4 11 2 6 1022.0 - 0.0
27/10:30pm 8.9 6.5 7.1 88 0.9 E 9 11 5 6 1022.1 - 0.0
27/10:20pm 9.2 7.3 6.9 85 1.1 SE 6 9 3 5 1021.9 - 0.0
27/10:10pm 10.0 7.9 6.5 79 1.7 SSE 7 9 4 5 1021.8 - 0.0
27/10:00pm 10.2 8.0 6.2 76 1.9 SSE 7 11 4 6 1021.8 - 0.0
27/09:50pm 10.0 7.5 6.5 79 1.7 SSE 9 11 5 6 1022.0 - 0.0
27/09:40pm 9.7 7.1 6.1 78 1.7 SSE 9 11 5 6 1021.8 - 0.0
27/09:30pm 10.1 8.2 6.8 80 1.6 SSE 6 11 3 6 1021.9 - 0.0
27/09:20pm 10.7 9.5 6.3 74 2.1 S 2 6 1 3 1022.0 - 0.0
27/09:10pm 10.6 9.8 6.4 75 2.1 CALM 0 0 0 0 1022.1 - 0.0
27/09:00pm 10.3 9.4 6.0 75 2.1 CALM 0 0 0 0 1022.2 - 0.0
27/08:50pm 9.9 9.2 6.9 81 1.5 CALM 0 0 0 0 1022.3 - 0.0
27/08:40pm 10.4 9.2 6.4 76 2.0 WSW 2 11 1 6 1022.3 - 0.0
27/08:30pm 10.4 8.0 6.8 78 1.8 W 9 11 5 6 1022.3 - 0.0
27/08:20pm 10.6 8.5 6.7 77 1.9 W 7 11 4 6 1022.3 - 0.0
27/08:10pm 10.4 8.8 6.2 75 2.0 SW 4 11 2 6 1022.2 - 0.0
27/08:00pm 10.1 7.2 6.5 78 1.8 W 11 13 6 7 1022.4 - 0.0
27/07:50pm 9.9 6.7 6.8 81 1.5 W 13 15 7 8 1022.6 - 0.0
27/07:40pm 9.9 5.9 6.8 81 1.5 W 17 19 9 10 1022.7 - 0.0
27/07:30pm 10.0 5.5 6.8 80 1.6 W 20 22 11 12 1022.7 - 0.0
27/07:20pm 10.0 5.1 7.0 81 1.5 W 22 22 12 12 1022.6 - 0.0
27/07:10pm 10.0 5.2 7.2 83 1.4 W 22 24 12 13 1022.4 - 0.0
27/07:00pm 9.9 4.8 7.6 85 1.1 W 24 24 13 13 1022.3 - 0.0
27/06:50pm 10.0 5.3 7.7 86 1.2 W 22 22 12 12 1022.1 - 0.0
27/06:40pm 9.8 5.5 7.9 88 1.0 WNW 20 22 11 12 1022.1 - 0.0
27/06:30pm 9.6 5.6 8.3 92 0.7 WNW 19 19 10 10 1022.0 - 0.0
27/06:20pm 9.8 5.8 8.2 90 0.8 WNW 19 20 10 11 1022.1 - 0.0
27/06:10pm 9.9 5.9 8.1 88 0.9 WNW 19 20 10 11 1021.9 - 0.0
27/06:00pm 10.0 6.7 8.0 87 1.0 WNW 15 17 8 9 1021.7 - 0.0
27/05:50pm 10.1 6.0 8.0 87 1.1 WNW 19 19 10 10 1021.6 - 0.0
27/05:40pm 10.1 6.4 8.0 87 1.1 WNW 17 19 9 10 1021.6 - 0.0
27/05:30pm 10.2 7.3 8.0 86 1.1 NW 13 15 7 8 1021.5 - 0.0
27/05:20pm 10.4 7.5 8.1 86 1.2 NW 13 13 7 7 1021.5 - 0.0
27/05:10pm 10.6 7.6 7.9 83 1.4 NW 13 15 7 8 1021.5 - 0.0
27/05:00pm 10.7 7.7 7.9 83 1.4 NW 13 15 7 8 1021.5 - 0.0
27/04:50pm 10.8 7.8 7.8 82 1.5 NW 13 15 7 8 1021.6 - 0.0
27/04:40pm 10.7 7.8 8.1 84 1.3 NW 13 15 7 8 1021.6 - 0.0
27/04:30pm 10.7 7.8 8.3 85 1.2 NW 13 15 7 8 1021.5 - 0.0
27/04:20pm 10.8 8.3 8.4 85 1.2 NW 11 13 6 7 1021.5 - 0.0
27/04:10pm 10.8 8.8 8.5 86 1.2 NW 9 11 5 6 1021.5 - 0.0
27/04:00pm 10.9 8.1 8.6 86 1.2 NNW 13 15 7 8 1021.5 - 0.0
27/03:50pm 11.3 8.2 8.9 85 1.2 NNW 15 17 8 9 1021.5 - 0.0
27/03:40pm 11.7 8.2 8.8 82 1.5 NNW 17 19 9 10 1021.4 - 0.0
27/03:30pm 11.8 8.7 9.0 83 1.5 NNW 15 17 8 9 1021.5 - 0.0
27/03:20pm 11.7 8.6 9.0 83 1.4 NNW 15 17 8 9 1021.4 - 0.0
27/03:10pm 11.8 9.0 8.6 81 1.7 NNW 13 17 7 9 1021.4 - 0.0
27/03:00pm 11.5 8.8 9.0 85 1.3 NW 13 15 7 8 1021.4 - 0.0
27/02:50pm 11.6 8.5 8.8 83 1.5 NW 15 17 8 9 1021.7 - 0.0
27/02:40pm 11.4 8.2 8.4 82 1.5 NW 15 17 8 9 1021.7 - 0.0
27/02:30pm 11.1 7.9 8.5 84 1.3 NW 15 19 8 10 1021.7 - 0.0
27/02:20pm 10.5 6.5 8.4 87 1.1 NW 19 20 10 11 1021.9 - 0.0
27/02:10pm 10.6 7.4 8.3 86 1.2 NW 15 15 8 8 1022.0 - 0.0
27/02:00pm 10.8 7.9 8.3 84 1.3 NW 13 15 7 8 1022.0 - 0.0
27/01:50pm 11.3 8.4 8.2 81 1.6 NW 13 15 7 8 1022.1 - 0.0
27/01:40pm 11.0 8.5 8.4 84 1.3 NW 11 13 6 7 1022.2 - 0.0
27/01:30pm 11.1 9.0 8.3 83 1.4 NW 9 13 5 7 1022.3 - 0.0
27/01:20pm 11.3 9.5 8.0 80 1.7 NW 7 9 4 5 1022.3 - 0.0
27/01:10pm 10.4 8.7 8.5 88 1.0 NW 7 9 4 5 1022.5 - 0.0
27/01:00pm 10.4 8.7 8.2 86 1.1 NW 7 9 4 5 1022.6 - 0.0
27/12:50pm 10.7 9.6 8.4 86 1.2 NW 4 6 2 3 1022.7 - 0.0
27/12:40pm 10.7 9.1 8.2 84 1.3 NW 6 6 3 3 1022.9 - 0.0
27/12:30pm 10.8 9.2 8.0 83 1.4 NW 6 7 3 4 1023.1 - 0.0
27/12:20pm 11.1 9.9 8.0 81 1.6 NNW 4 6 2 3 1023.2 - 0.0
27/12:10pm 11.3 9.8 8.5 83 1.4 NW 6 7 3 4 1023.4 - 0.0
27/12:00pm 11.4 9.9 8.5 82 1.5 NW 6 7 3 4 1023.7 - 0.0
27/11:50am 11.5 10.3 8.2 80 1.7 NW 4 4 2 2 1023.7 - 0.0
27/11:40am 11.4 10.6 8.2 81 1.6 NW 2 4 1 2 1024.0 - 0.0
27/11:30am 11.2 10.8 8.1 81 1.6 CALM 0 4 0 2 1024.0 - 0.0
27/11:20am 10.7 9.9 8.0 83 1.4 ENE 2 6 1 3 1024.0 - 0.0
27/11:10am 10.3 9.7 7.4 82 1.4 CALM 0 0 0 0 1024.4 - 0.0
27/11:00am 9.5 8.8 7.0 84 1.2 CALM 0 0 0 0 1024.5 - 0.0
27/10:50am 9.2 8.5 7.0 86 1.1 CALM 0 0 0 0 1024.8 - 0.0
27/10:40am 9.4 8.6 6.6 83 1.4 CALM 0 0 0 0 1024.8 - 0.0
27/10:30am 8.8 7.7 5.1 77 1.7 CALM 0 0 0 0 1024.9 - 0.0
27/10:20am 7.9 6.7 4.6 80 1.5 CALM 0 0 0 0 1025.0 - 0.0
27/10:10am 7.3 6.2 5.3 87 0.9 CALM 0 0 0 0 1025.0 - 0.0
27/10:00am 7.3 6.0 6.1 92 0.6 SE 2 7 1 4 1025.0 - 0.0
27/09:50am 7.6 5.6 6.3 91 0.6 ESE 6 7 3 4 1024.9 - 0.0
27/09:40am 8.0 5.8 6.3 89 0.8 ESE 7 9 4 5 1024.9 - 0.0
27/09:30am 8.4 6.7 6.1 85 1.1 E 4 6 2 3 1024.8 - 0.0
27/09:20am 8.1 7.2 6.1 87 1.0 CALM 0 0 0 0 1025.0 - 0.0
27/09:10am 7.8 6.9 6.1 89 0.8 CALM 0 0 0 0 1024.9 - 0.0
27/09:00am 8.3 7.5 6.3 87 1.0 CALM 0 0 0 0 1024.9 - 0.0
27/08:50am 7.9 7.0 6.0 88 0.9 CALM 0 0 0 0 1024.9 - 0.0
27/08:40am 7.8 6.7 4.9 82 1.3 CALM 0 0 0 0 1024.8 - 0.0
27/08:30am 7.8 6.8 5.5 85 1.1 CALM 0 4 0 2 1024.6 - 0.0
27/08:20am 7.4 6.4 5.7 89 0.8 CALM 0 0 0 0 1024.6 - 0.0
27/08:10am 7.2 6.3 6.0 92 0.6 CALM 0 0 0 0 1024.6 - 0.0
27/08:00am 6.9 6.0 5.9 93 0.5 CALM 0 0 0 0 1024.6 - 0.0
27/07:50am 6.9 6.0 6.0 94 0.4 CALM 0 2 0 1 1024.7 - 0.0
27/07:40am 6.8 5.8 5.8 93 0.5 CALM 0 0 0 0 1024.5 - 0.0
27/07:30am 6.7 5.7 5.5 92 0.6 CALM 0 0 0 0 1024.5 - 0.0
27/07:20am 6.5 4.9 4.4 86 0.9 ENE 2 7 1 4 1024.6 - 0.0
27/07:10am 6.4 3.3 3.8 83 1.2 E 9 15 5 8 1024.4 - 0.0
27/07:00am 6.1 3.7 4.1 87 0.9 E 6 11 3 6 1024.3 - 0.0
27/06:50am 6.3 4.6 4.0 85 1.0 ESE 2 7 1 4 1024.2 - 0.0
27/06:40am 6.3 5.1 4.4 88 0.9 CALM 0 0 0 0 1024.2 - 0.0
27/06:30am 6.4 4.0 4.1 85 1.0 ESE 6 11 3 6 1024.2 - 0.0
27/06:20am 6.5 3.9 4.2 85 1.0 E 7 13 4 7 1024.1 - 0.0
27/06:10am 6.8 4.8 4.4 85 1.1 E 4 11 2 6 1024.2 - 0.0
27/06:00am 7.1 5.1 4.6 84 1.1 ESE 4 9 2 5 1024.2 - 0.0
27/05:50am 7.2 4.6 4.2 81 1.4 ESE 7 13 4 7 1024.2 - 0.0
27/05:40am 7.1 4.1 4.3 82 1.3 ESE 9 11 5 6 1024.1 - 0.0
27/05:30am 7.2 4.6 4.4 82 1.3 ESE 7 13 4 7 1024.1 - 0.0
27/05:20am 8.0 4.7 4.3 77 1.7 SE 11 15 6 8 1024.1 - 0.0
27/05:10am 8.1 3.9 4.0 75 1.9 SE 15 15 8 8 1024.0 - 0.0
27/05:00am 8.1 3.9 3.8 74 1.9 SE 15 15 8 8 1023.9 - 0.0
27/04:50am 8.4 4.2 3.7 72 2.1 SE 15 15 8 8 1024.0 - 0.0
27/04:40am 8.5 4.3 3.8 72 2.1 SSE 15 15 8 8 1024.0 - 0.0
27/04:30am 8.5 4.3 3.9 73 2.1 SSE 15 15 8 8 1024.1 - 0.0
27/04:20am 8.5 4.3 3.9 73 2.1 SSE 15 15 8 8 1024.1 - 0.0
27/04:10am 8.4 4.3 4.1 74 2.0 SSE 15 15 8 8 1024.2 - 0.0
27/04:00am 8.2 4.8 4.1 75 1.9 SSE 11 15 6 8 1024.2 - 0.0
27/03:50am 8.2 4.1 4.1 75 1.9 SSE 15 17 8 9 1024.2 - 0.0
27/03:40am 8.0 3.8 4.0 76 1.8 SSE 15 17 8 9 1024.2 - 0.0
27/03:30am 8.1 3.9 4.0 75 1.9 SSE 15 17 8 9 1024.2 - 0.0
27/03:20am 8.0 3.5 4.3 77 1.7 SSE 17 17 9 9 1024.2 - 0.0
27/03:10am 7.9 4.2 4.4 78 1.6 SSE 13 15 7 8 1024.3 - 0.0
27/03:00am 7.7 4.8 4.8 82 1.3 SSE 9 17 5 9 1024.4 - 0.0
27/02:50am 7.9 4.3 4.9 81 1.4 SSE 13 17 7 9 1024.6 - 0.0
27/02:40am 8.1 4.4 4.7 79 1.6 SSE 13 17 7 9 1024.6 - 0.0
27/02:30am 8.1 4.0 4.3 77 1.7 SSE 15 19 8 10 1024.8 - 0.0
27/02:20am 8.0 3.6 4.8 80 1.5 SSE 17 19 9 10 1024.7 - 0.0
27/02:10am 8.0 3.4 5.4 84 1.2 SE 19 20 10 11 1024.8 - 0.0
27/02:00am 8.0 3.3 5.3 83 1.3 ESE 19 20 10 11 1024.9 - 0.0
27/01:50am 8.2 4.6 5.2 81 1.4 ESE 13 17 7 9 1024.9 - 0.0
27/01:40am 8.4 4.4 4.7 77 1.7 SSE 15 17 8 9 1025.2 - 0.0
27/01:30am 8.6 4.5 4.6 76 1.8 SE 15 17 8 9 1025.0 - 0.0
27/01:20am 8.6 5.0 4.9 77 1.7 SE 13 15 7 8 1025.2 - 0.0
27/01:10am 8.7 4.9 5.6 81 1.5 SE 15 17 8 9 1025.2 - 0.0
27/01:00am 8.7 4.9 5.6 81 1.5 SE 15 17 8 9 1025.3 - 0.0
27/12:50am 8.7 5.6 5.7 81 1.4 ESE 11 15 6 8 1025.4 - 0.0
27/12:40am 8.9 6.2 5.6 80 1.6 SE 9 15 5 8 1025.7 - 0.0
27/12:30am 8.9 5.1 5.6 80 1.6 ESE 15 15 8 8 1025.7 - 0.0
27/12:20am 8.9 5.0 5.5 79 1.6 SE 15 19 8 10 1025.9 - 0.0
27/12:10am 9.4 5.1 5.2 75 2.0 SSE 17 19 9 10 1025.8 - 0.0
27/12:00am 9.4 5.1 5.1 74 2.0 S 17 19 9 10 1025.8 - 0.0
 
Date/Time
EST
Temp
°C
App
Temp
°C
Dew
Point
°C
Rel
Hum
%
Delta-T
°C
Wind Press
QNH
hPa
Press
MSL
hPa
Rain since
9am
mm
Dir  Spd
km/h
Gust
km/h
Spd
kts
Gust
kts
26/11:50pm 9.2 5.3 5.4 77 1.8 S 15 19 8 10 1025.9 - 0.0
26/11:40pm 9.0 4.5 6.0 81 1.4 SSE 19 22 10 12 1025.7 - 0.0
26/11:30pm 8.9 4.3 6.4 84 1.2 SE 20 22 11 12 1025.7 - 0.0
26/11:20pm 9.0 4.4 6.5 84 1.2 SE 20 20 11 11 1025.8 - 0.0
26/11:10pm 9.0 4.6 6.7 85 1.1 SE 19 20 10 11 1026.1 - 0.0
26/11:00pm 9.0 4.7 6.8 86 1.1 SE 19 19 10 10 1026.1 - 0.0
26/10:50pm 9.0 4.6 6.7 85 1.1 SSE 19 20 10 11 1026.0 - 0.0
26/10:40pm 9.0 5.0 6.7 85 1.1 SSE 17 19 9 10 1026.0 - 0.0
26/10:30pm 9.0 5.7 6.6 85 1.2 SSE 13 15 7 8 1026.2 - 0.0
26/10:20pm 8.9 5.3 6.7 86 1.1 SSE 15 15 8 8 1026.2 - 0.0
26/10:10pm 8.9 4.9 6.7 86 1.1 SE 17 19 9 10 1026.1 - 0.0
26/10:00pm 8.9 4.5 6.6 85 1.1 ESE 19 20 10 11 1026.2 - 0.0
26/09:50pm 8.9 4.5 6.6 85 1.1 ESE 19 20 10 11 1026.1 - 0.0
26/09:40pm 8.9 4.9 6.6 85 1.1 ESE 17 19 9 10 1026.3 - 0.0
26/09:30pm 8.8 4.8 6.5 85 1.1 ESE 17 17 9 9 1026.2 - 0.0
26/09:20pm 8.8 5.1 6.5 85 1.1 SE 15 19 8 10 1026.3 - 0.0
26/09:10pm 8.7 5.4 6.5 86 1.1 SE 13 15 7 8 1026.2 - 0.0
26/09:00pm 8.9 4.8 6.4 84 1.2 ESE 17 19 9 10 1026.1 - 0.0
26/08:50pm 8.8 5.5 6.3 84 1.2 ESE 13 15 7 8 1026.2 - 0.0
26/08:40pm 8.7 4.2 6.3 85 1.2 SE 19 20 10 11 1026.1 - 0.0
26/08:30pm 8.7 3.3 6.4 85 1.1 SE 24 28 13 15 1025.9 - 0.0
26/08:20pm 9.1 3.3 6.4 83 1.3 SSE 26 28 14 15 1025.4 - 0.0
26/08:10pm 9.2 4.5 6.1 81 1.5 SSE 20 22 11 12 1025.6 - 0.0
26/08:00pm 8.9 3.1 6.2 83 1.3 SSE 26 30 14 16 1025.8 - 0.0
26/07:50pm 9.0 2.9 6.4 84 1.3 SE 28 30 15 16 1025.6 - 0.0
26/07:40pm 9.1 2.6 6.3 83 1.4 SE 30 32 16 17 1025.3 - 0.0
26/07:30pm 9.0 3.2 6.4 84 1.3 SE 26 28 14 15 1025.3 - 0.0
26/07:20pm 9.1 3.3 6.2 82 1.4 SE 26 28 14 15 1025.2 - 0.0
26/07:10pm 9.3 3.1 6.2 81 1.5 SE 28 30 15 16 1025.1 - 0.0
26/07:00pm 9.4 3.2 6.1 80 1.6 SE 28 28 15 15 1025.1 - 0.0
26/06:50pm 9.5 4.0 6.0 79 1.7 ESE 24 26 13 14 1025.1 - 0.0
26/06:40pm 9.6 4.1 5.9 78 1.8 ESE 24 24 13 13 1025.2 - 0.0
26/06:30pm 9.8 4.3 5.7 75 2.0 ESE 24 26 13 14 1025.1 - 0.0
26/06:20pm 9.9 3.6 5.7 75 2.0 ESE 28 30 15 16 1025.0 - 0.0
26/06:10pm 10.1 3.8 5.6 73 2.2 ESE 28 32 15 17 1024.9 - 0.0
26/06:00pm 10.4 3.2 5.8 73 2.2 ESE 33 35 18 19 1024.5 - 0.0
26/05:50pm 10.5 3.1 5.1 69 2.6 ESE 33 35 18 19 1024.4 - 0.0
26/05:40pm 10.5 2.7 5.0 69 2.6 ESE 35 39 19 21 1024.4 - 0.0
26/05:30pm 10.5 2.3 4.7 67 2.7 ESE 37 39 20 21 1024.0 - 0.0
26/05:20pm 10.5 3.0 4.6 67 2.8 ESE 33 37 18 20 1024.0 - 0.0
26/05:10pm 10.4 3.0 5.2 70 2.5 ESE 33 35 18 19 1024.2 - 0.0
26/05:00pm 10.6 2.8 5.1 69 2.6 ESE 35 37 19 20 1023.9 - 0.0
26/04:50pm 10.6 2.9 5.4 70 2.5 ESE 35 37 19 20 1023.9 - 0.0
26/04:40pm 10.6 3.0 5.9 73 2.3 ESE 35 37 19 20 1024.0 - 0.0
26/04:30pm 11.0 2.6 5.7 70 2.6 ESE 39 46 21 25 1023.8 - 0.0
26/04:20pm 11.3 2.2 5.7 68 2.7 ESE 43 44 23 24 1023.3 - 0.0
26/04:10pm 11.4 2.7 6.2 70 2.5 E 41 43 22 23 1023.5 - 0.0
26/04:00pm 11.5 3.8 6.9 73 2.3 ESE 37 39 20 21 1023.6 - 0.0
26/03:50pm 11.2 3.6 7.4 77 1.9 ESE 37 43 20 23 1023.7 - 0.0
26/03:40pm 11.3 2.3 7.4 77 2.0 ESE 44 48 24 26 1023.3 - 0.0
26/03:30pm 11.5 2.7 8.1 79 1.7 ESE 44 48 24 26 1022.9 - 0.0
26/03:20pm 11.9 3.2 8.5 80 1.8 ESE 44 46 24 25 1023.2 - 0.0
26/03:10pm 12.0 3.8 8.2 77 1.9 ESE 41 44 22 24 1023.1 - 0.0
26/03:00pm 12.2 3.4 8.1 76 2.1 ESE 44 46 24 25 1023.2 - 0.0
26/02:50pm 12.2 3.4 8.0 75 2.1 SE 44 48 24 26 1022.8 - 0.0
26/02:40pm 12.4 4.2 8.3 76 2.1 SE 41 44 22 24 1022.7 - 0.0
26/02:30pm 12.7 4.9 8.3 74 2.3 ESE 39 43 21 23 1023.1 - 0.0
26/02:20pm 12.5 5.1 8.2 75 2.2 SE 37 43 20 23 1023.1 - 0.0
26/02:10pm 12.5 4.8 8.6 77 2.0 ESE 39 44 21 24 1023.7 - 0.0
26/02:00pm 12.4 3.9 8.4 76 2.1 ESE 43 46 23 25 1022.9 - 0.0
26/01:50pm 12.5 4.4 8.5 76 2.1 ESE 41 44 22 24 1023.3 - 0.0
26/01:40pm 12.5 3.8 8.3 75 2.2 SE 44 54 24 29 1023.2 - 0.0
26/01:30pm 12.6 3.8 8.2 74 2.3 SE 44 46 24 25 1023.1 - 0.0
26/01:20pm 12.3 3.6 8.3 76 2.1 SE 44 48 24 26 1023.2 - 0.0
26/01:10pm 12.4 2.9 8.4 76 2.1 SE 48 56 26 30 1023.3 - 0.0
26/01:00pm 12.5 3.8 8.3 75 2.2 SE 44 46 24 25 1023.2 - 0.0
26/12:50pm 12.3 3.2 8.4 77 2.0 SE 46 50 25 27 1023.3 - 0.0
26/12:40pm 12.5 4.3 8.3 75 2.2 SE 41 44 22 24 1023.7 - 0.0
26/12:30pm 12.2 3.0 8.2 76 2.1 SE 46 48 25 26 1023.6 - 0.0
26/12:20pm 12.3 - 8.5 77 2.0 - - - - - 1024.3 - 0.0
26/12:10pm 12.4 3.8 8.1 75 2.2 SE 43 46 23 25 1024.4 - 0.0
26/12:00pm 12.4 - 8.6 77 2.0 - - - - - 1024.5 - 0.0
26/11:50am 12.1 - 7.6 74 2.3 - - - - - 1024.5 - 0.0
26/11:40am 12.1 1.7 7.8 75 2.2 SE 52 59 28 32 1024.4 - 0.0
26/11:30am 12.2 - 7.9 75 2.2 - - - - - 1024.6 - 0.0
26/11:20am 12.2 1.8 7.8 74 2.2 ESE 52 59 28 32 1023.8 - 0.0
26/11:10am 12.1 - 7.6 74 2.3 - - - - - 1025.0 - 0.0
26/11:00am 11.9 3.2 7.7 75 2.1 ESE 43 50 23 27 1025.0 - 0.0
26/10:50am 11.6 2.4 7.8 77 1.9 SE 46 48 25 26 1025.6 - 0.0
26/10:40am 11.5 3.2 7.9 78 1.8 ESE 41 44 22 24 1025.1 - 0.0
26/10:30am 11.4 3.1 7.8 78 1.8 ESE 41 44 22 24 1025.7 - 0.0
26/10:20am 11.1 2.7 7.5 78 1.8 SE 41 44 22 24 1025.5 - 0.0
26/10:10am 10.7 1.9 7.4 80 1.6 SE 43 44 23 24 1025.4 - 0.0
26/10:00am 10.7 2.3 7.4 80 1.6 ESE 41 43 22 23 1025.4 - 0.0
26/09:50am 10.3 2.3 7.4 82 1.4 ESE 39 39 21 21 1025.8 - 0.0
26/09:40am 9.9 2.2 7.0 82 1.4 SE 37 41 20 22 1025.7 - 0.0
26/09:30am 9.4 1.3 6.9 84 1.2 SE 39 44 21 24 1025.7 - 0.0
26/09:20am 9.2 0.3 6.8 85 1.2 SE 43 44 23 24 1025.2 - 0.0
26/09:10am 9.1 0.5 6.5 84 1.3 SE 41 46 22 25 1025.2 - 0.0
26/09:00am 8.7 -0.3 6.4 85 1.1 SE 43 44 23 24 1025.1 - 0.0
26/08:50am 8.4 -0.8 6.3 87 1.0 SE 44 46 24 25 1024.9 - 0.0
26/08:40am 8.3 -1.0 5.9 85 1.1 SE 44 46 24 25 1024.9 - 0.0
26/08:30am 8.3 -1.0 5.8 84 1.2 SE 44 46 24 25 1024.8 - 0.0
26/08:20am 8.1 -0.7 5.6 84 1.2 SE 41 48 22 26 1024.5 - 0.0
26/08:10am 7.7 -1.0 5.8 88 0.9 SE 41 44 22 24 1024.8 - 0.0
26/08:00am 7.8 -1.9 5.6 86 1.0 SE 46 48 25 26 1024.2 - 0.0
26/07:50am 7.8 -2.0 5.4 85 1.1 SE 46 50 25 27 1024.0 - 0.0
26/07:40am 7.3 -1.2 5.3 87 0.9 SE 39 41 21 22 1024.5 - 0.0
26/07:30am 7.3 -1.2 5.3 87 0.9 SE 39 43 21 23 1024.4 - 0.0
26/07:20am 7.5 -1.9 5.2 85 1.1 SE 44 44 24 24 1024.1 - 0.0
26/07:10am 6.6 -1.9 5.0 89 0.7 SE 39 44 21 24 1023.8 - 0.0
26/07:00am 6.4 -2.1 5.0 91 0.6 ESE 39 43 21 23 1023.7 - 0.0
26/06:50am 6.7 -1.8 5.1 89 0.7 SE 39 43 21 23 1023.6 - 0.0
26/06:40am 6.9 -2.0 5.2 89 0.8 SE 41 43 22 23 1023.9 - 0.0
26/06:30am 7.2 -2.6 5.1 86 1.0 SE 46 48 25 26 1023.4 - 0.0
26/06:20am 7.3 -2.5 5.1 86 1.0 SE 46 48 25 26 1023.4 - 0.0
26/06:10am 7.5 -2.0 5.0 84 1.2 SE 44 48 24 26 1023.0 - 0.0
26/06:00am 7.4 -1.9 4.9 84 1.2 SE 43 46 23 25 1023.3 - 0.0
26/05:50am 7.4 -2.5 4.7 83 1.2 SE 46 48 25 26 1023.2 - 0.0
26/05:40am 7.3 -2.3 4.6 83 1.2 SE 44 48 24 26 1023.2 - 0.0
26/05:30am 6.9 -1.7 4.7 86 1.0 SE 39 43 21 23 1023.4 - 0.0
26/05:20am 7.1 -1.9 4.7 85 1.1 SE 41 44 22 24 1023.3 - 0.0
26/05:10am 7.1 -2.3 4.6 84 1.1 SE 43 44 23 24 1023.2 - 0.0
26/05:00am 6.8 -1.4 4.6 86 1.0 SE 37 39 20 21 1023.3 - 0.0
26/04:50am 7.1 -1.5 4.4 83 1.2 SE 39 43 21 23 1023.5 - 0.0
26/04:40am 7.0 -2.0 4.4 83 1.2 SE 41 43 22 23 1023.4 - 0.0
26/04:30am 7.0 -2.1 4.2 82 1.3 SE 41 44 22 24 1023.4 - 0.0
26/04:20am 6.7 -2.0 4.2 84 1.1 SE 39 39 21 21 1023.5 - 0.0
26/04:10am 6.4 -1.5 4.1 85 1.0 SE 35 39 19 21 1023.6 - 0.0
26/04:00am 6.8 -2.7 4.1 83 1.2 SE 43 46 23 25 1023.3 - 0.0
26/03:50am 6.3 -2.1 3.9 85 1.1 SE 37 41 20 22 1023.1 - 0.0
26/03:40am 6.3 -1.7 3.6 83 1.2 SE 35 37 19 20 1023.5 - 0.0
26/03:30am 6.3 -1.2 3.7 83 1.2 SE 32 33 17 18 1023.7 - 0.0
26/03:20am 6.5 -1.1 3.7 82 1.2 SE 33 35 18 19 1023.7 - 0.0
26/03:10am 6.3 -1.2 3.5 82 1.2 SE 32 32 17 17 1023.8 - 0.0
26/03:00am 6.3 -1.2 3.6 83 1.2 SE 32 33 17 18 1023.8 - 0.0
26/02:50am 6.4 -1.3 3.3 80 1.4 SE 33 35 18 19 1023.8 - 0.0
26/02:40am 6.8 -1.7 3.3 78 1.5 SE 37 39 20 21 1023.7 - 0.0
26/02:30am 6.9 -2.0 3.2 77 1.6 SE 39 39 21 21 1023.7 - 0.0
26/02:20am 7.0 -1.5 3.1 76 1.7 SE 37 39 20 21 1023.8 - 0.0
26/02:10am 7.2 -2.5 3.1 75 1.8 SE 43 43 23 23 1023.5 - 0.0
26/02:00am 7.2 -1.7 2.9 74 1.9 SE 39 41 21 22 1023.7 - 0.0
26/01:50am 7.0 -1.1 3.0 76 1.8 SE 35 37 19 20 1023.9 - 0.0
26/01:40am 7.3 -0.9 2.8 73 2.0 SE 35 35 19 19 1024.0 - 0.0
26/01:30am 7.0 -1.6 2.8 74 1.8 SE 37 39 20 21 1023.8 - 0.0
26/01:20am 7.0 -1.2 2.9 75 1.8 SE 35 39 19 21 1023.7 - 0.0
26/01:10am 7.0 -1.2 2.8 74 1.8 SE 35 35 19 19 1024.1 - 0.0
26/01:00am 6.7 -0.9 3.0 77 1.6 SE 32 33 17 18 1024.2 - 0.0
26/12:50am 7.0 -1.5 3.2 77 1.7 SE 37 39 20 21 1024.1 - 0.0
26/12:40am 7.0 -1.9 3.0 76 1.8 SE 39 41 21 22 1023.7 - 0.0
26/12:30am 6.9 -1.2 3.3 78 1.6 ESE 35 37 19 20 1023.8 - 0.0
26/12:20am 7.2 -0.9 3.3 76 1.7 ESE 35 37 19 20 1023.9 - 0.0
26/12:10am 7.7 0.0 3.2 73 2.0 SE 33 35 18 19 1023.9 - 0.0
26/12:00am 8.0 -0.5 3.2 72 2.1 SE 37 41 20 22 1023.9 - 0.0
 
Date/Time
EST
Temp
°C
App
Temp
°C
Dew
Point
°C
Rel
Hum
%
Delta-T
°C
Wind Press
QNH
hPa
Press
MSL
hPa
Rain since
9am
mm
Dir  Spd
km/h
Gust
km/h
Spd
kts
Gust
kts
25/11:50pm 7.8 -0.6 3.5 74 1.9 SE 37 39 20 21 1023.7 - 0.0
25/11:40pm 7.8 -1.4 3.7 75 1.8 SE 41 44 22 24 1023.8 - 0.0
25/11:30pm 7.7 -1.4 3.9 77 1.7 SE 41 43 22 23 1023.7 - 0.0
25/11:20pm 7.6 -1.5 4.1 78 1.6 SE 41 43 22 23 1023.9 - 0.0
25/11:10pm 7.7 -1.3 4.3 79 1.5 SE 41 44 22 24 1023.6 - 0.0
25/11:00pm 7.5 -0.8 4.2 79 1.5 SE 37 41 20 22 1023.8 - 0.0
25/10:50pm 7.5 -0.4 4.3 80 1.5 SE 35 37 19 20 1024.0 - 0.0
25/10:40pm 7.5 0.5 4.3 80 1.5 SE 30 32 16 17 1024.2 - 0.0
25/10:30pm 7.4 1.2 4.4 81 1.4 SE 26 28 14 15 1024.5 - 0.0
25/10:20pm 7.5 1.0 4.5 81 1.4 SE 28 32 15 17 1024.4 - 0.0
25/10:10pm 7.4 0.5 4.6 82 1.3 SE 30 32 16 17 1024.5 - 0.0
25/10:00pm 7.5 0.6 4.6 82 1.3 SE 30 32 16 17 1024.4 - 0.0
25/09:50pm 7.5 1.4 5.0 84 1.2 SE 26 28 14 15 1024.5 - 0.0
25/09:40pm 7.6 1.9 5.1 84 1.2 SE 24 26 13 14 1024.7 - 0.0
25/09:30pm 7.8 2.2 5.3 84 1.2 SE 24 28 13 15 1024.7 - 0.0
25/09:20pm 7.9 1.5 5.4 84 1.2 SE 28 28 15 15 1024.7 - 0.0
25/09:10pm 8.0 2.0 5.5 84 1.2 SE 26 26 14 14 1024.7 - 0.0
25/09:00pm 8.1 2.1 5.5 84 1.2 SE 26 26 14 14 1024.6 - 0.0
25/08:50pm 8.2 2.6 5.6 84 1.2 SE 24 26 13 14 1024.4 - 0.0
25/08:40pm 8.3 3.1 5.7 84 1.2 SE 22 24 12 13 1024.4 - 0.0
25/08:30pm 8.4 2.9 5.7 83 1.3 SE 24 28 13 15 1024.2 - 0.0
25/08:20pm 8.3 2.8 5.7 84 1.2 SE 24 26 13 14 1024.1 - 0.0
25/08:10pm 8.1 2.9 5.7 85 1.1 SE 22 26 12 14 1024.0 - 0.0
25/08:00pm 8.1 2.6 5.8 85 1.1 SE 24 26 13 14 1024.0 - 0.0
25/07:50pm 8.4 2.1 5.8 84 1.2 SSE 28 30 15 16 1023.7 - 0.0
25/07:40pm 8.2 2.3 5.8 85 1.1 SSE 26 28 14 15 1023.6 - 0.0
25/07:30pm 8.3 2.0 5.8 84 1.2 SSE 28 32 15 17 1023.4 - 0.0
25/07:20pm 8.4 1.4 6.0 85 1.1 SE 32 33 17 18 1023.4 - 0.0
25/07:10pm 8.4 1.8 5.9 84 1.2 SE 30 30 16 16 1023.4 - 0.0
25/07:00pm 8.4 1.7 5.8 84 1.2 SE 30 32 16 17 1023.3 - 0.0
25/06:50pm 8.5 1.8 5.7 82 1.3 SE 30 32 16 17 1023.3 - 0.0
25/06:40pm 8.7 2.0 5.6 81 1.5 SE 30 32 16 17 1023.0 - 0.0
25/06:30pm 8.7 2.4 5.8 82 1.4 SE 28 30 15 16 1023.0 - 0.0
25/06:20pm 8.9 2.6 5.7 80 1.5 SSE 28 30 15 16 1023.0 - 0.0
25/06:10pm 9.1 2.8 5.7 79 1.6 SSE 28 30 15 16 1022.8 - 0.0
25/06:00pm 9.3 2.6 5.6 78 1.8 SE 30 32 16 17 1022.5 - 0.0
25/05:50pm 9.4 3.1 5.6 77 1.8 SE 28 30 15 16 1022.3 - 0.0
25/05:40pm 9.3 3.8 5.7 78 1.7 SE 24 26 13 14 1022.3 - 0.0
25/05:30pm 9.3 3.4 5.7 78 1.7 SE 26 26 14 14 1022.2 - 0.0
25/05:20pm 9.3 3.4 5.6 78 1.8 SE 26 26 14 14 1022.0 - 0.0
25/05:10pm 9.3 3.0 5.7 78 1.7 SE 28 30 15 16 1021.9 - 0.0
25/05:00pm 9.5 2.8 5.7 77 1.8 SE 30 32 16 17 1021.8 - 0.0
25/04:50pm 9.7 3.0 5.7 76 1.9 SE 30 32 16 17 1021.6 - 0.0
25/04:40pm 9.8 2.8 5.8 76 1.9 SE 32 33 17 18 1021.6 - 0.0
25/04:30pm 10.1 3.0 5.7 74 2.1 SE 32 37 17 20 1021.5 - 0.0
25/04:20pm 10.3 3.0 5.6 72 2.3 SE 33 35 18 19 1021.5 - 0.0
25/04:10pm 10.4 2.8 5.8 73 2.2 SE 35 39 19 21 1021.7 - 0.0
25/04:00pm 10.5 2.8 5.5 71 2.4 SE 35 39 19 21 1021.4 - 0.0
25/03:50pm 10.7 3.5 5.8 72 2.4 SE 33 37 18 20 1021.5 - 0.0
25/03:40pm 10.8 3.1 5.5 70 2.5 SE 35 39 19 21 1021.8 - 0.0
25/03:30pm 10.8 2.4 5.5 70 2.5 SE 39 43 21 23 1021.3 - 0.0
25/03:20pm 10.9 2.5 5.4 69 2.6 SE 39 43 21 23 1021.3 - 0.0
25/03:10pm 11.0 2.6 5.4 68 2.7 SE 39 43 21 23 1021.1 - 0.0
25/03:00pm 11.0 2.6 5.5 69 2.6 SE 39 43 21 23 1021.2 - 0.0

Other formats

Comma delimited format used in spreadsheet applications
http://www.bom.gov.au/fwo/IDN60801/IDN60801.99763.axf

JavaScript Object Notation format (JSON) in row-major order
http://www.bom.gov.au/fwo/IDN60801/IDN60801.99763.json

Data quality

Most of these data are generated automatically and are frequently updated. Quality checks on data are not normally performed. It is possible for incorrect values to appear. Refer to information at About Latest Weather Observations and please check the disclaimer before using these data.